sensor_id;sensor_type;location;lat;lon;timestamp;pressure;altitude;pressure_sealevel;temperature;humidity
64453;BME280;50813;52.654;6.766;2023-03-21T00:00:03;101522.0;;;9.53;100.0
64453;BME280;50813;52.654;6.766;2023-03-21T00:01:40;101528.0;;;9.59;100.0
64453;BME280;50813;52.654;6.766;2023-03-21T00:03:16;101524.0;;;9.55;100.0
64453;BME280;50813;52.654;6.766;2023-03-21T00:06:28;101527.0;;;9.5;100.0
64453;BME280;50813;52.654;6.766;2023-03-21T00:08:04;101524.0;;;9.55;100.0
64453;BME280;50813;52.654;6.766;2023-03-21T00:09:41;101519.0;;;9.56;100.0
64453;BME280;50813;52.654;6.766;2023-03-21T00:11:17;101521.0;;;9.51;100.0
64453;BME280;50813;52.654;6.766;2023-03-21T00:14:29;101517.0;;;9.55;100.0
64453;BME280;50813;52.654;6.766;2023-03-21T00:16:07;101521.0;;;9.57;100.0
64453;BME280;50813;52.654;6.766;2023-03-21T00:17:44;101515.0;;;9.58;100.0
64453;BME280;50813;52.654;6.766;2023-03-21T00:20:57;101514.0;;;9.61;100.0
64453;BME280;50813;52.654;6.766;2023-03-21T00:22:35;101509.0;;;9.61;100.0
64453;BME280;50813;52.654;6.766;2023-03-21T00:24:11;101509.0;;;9.58;100.0
64453;BME280;50813;52.654;6.766;2023-03-21T00:27:23;101506.0;;;9.57;100.0
64453;BME280;50813;52.654;6.766;2023-03-21T00:28:59;101508.0;;;9.61;100.0
64453;BME280;50813;52.654;6.766;2023-03-21T00:30:35;101505.0;;;9.64;100.0
64453;BME280;50813;52.654;6.766;2023-03-21T00:32:15;101505.0;;;9.68;100.0
64453;BME280;50813;52.654;6.766;2023-03-21T00:35:27;101502.0;;;9.72;100.0
64453;BME280;50813;52.654;6.766;2023-03-21T00:37:03;101501.0;;;9.71;100.0
64453;BME280;50813;52.654;6.766;2023-03-21T00:38:39;101499.0;;;9.68;100.0
64453;BME280;50813;52.654;6.766;2023-03-21T00:41:51;101501.0;;;9.73;100.0
64453;BME280;50813;52.654;6.766;2023-03-21T00:43:28;101500.0;;;9.72;100.0
64453;BME280;50813;52.654;6.766;2023-03-21T00:45:05;101490.0;;;9.71;100.0
64453;BME280;50813;52.654;6.766;2023-03-21T00:48:18;101488.0;;;9.74;100.0
64453;BME280;50813;52.654;6.766;2023-03-21T00:49:53;101491.0;;;9.81;100.0
64453;BME280;50813;52.654;6.766;2023-03-21T00:51:30;101489.0;;;9.8;100.0
64453;BME280;50813;52.654;6.766;2023-03-21T00:54:43;101487.0;;;9.78;100.0
64453;BME280;50813;52.654;6.766;2023-03-21T00:56:19;101485.0;;;9.78;100.0
64453;BME280;50813;52.654;6.766;2023-03-21T00:57:55;101480.0;;;9.74;100.0
64453;BME280;50813;52.654;6.766;2023-03-21T00:59:31;101478.0;;;9.75;100.0
64453;BME280;50813;52.654;6.766;2023-03-21T01:02:43;101476.0;;;9.78;100.0
64453;BME280;50813;52.654;6.766;2023-03-21T01:04:20;101477.0;;;9.81;100.0
64453;BME280;50813;52.654;6.766;2023-03-21T01:05:58;101475.0;;;9.82;100.0
64453;BME280;50813;52.654;6.766;2023-03-21T01:09:12;101468.0;;;9.76;100.0
64453;BME280;50813;52.654;6.766;2023-03-21T01:10:49;101466.0;;;9.82;100.0
64453;BME280;50813;52.654;6.766;2023-03-21T01:12:26;101463.0;;;9.89;100.0
64453;BME280;50813;52.654;6.766;2023-03-21T01:14:03;101461.0;;;9.85;100.0
64453;BME280;50813;52.654;6.766;2023-03-21T01:17:20;101463.0;;;9.91;100.0
64453;BME280;50813;52.654;6.766;2023-03-21T01:18:56;101460.0;;;9.91;100.0
64453;BME280;50813;52.654;6.766;2023-03-21T01:20:33;101462.0;;;10.0;100.0
64453;BME280;50813;52.654;6.766;2023-03-21T01:23:45;101458.0;;;9.98;100.0
64453;BME280;50813;52.654;6.766;2023-03-21T01:25:23;101459.0;;;9.99;100.0
64453;BME280;50813;52.654;6.766;2023-03-21T01:27:00;101451.0;;;10.14;100.0
64453;BME280;50813;52.654;6.766;2023-03-21T01:30:17;101451.0;;;10.05;100.0
64453;BME280;50813;52.654;6.766;2023-03-21T01:31:53;101457.0;;;10.16;100.0
64453;BME280;50813;52.654;6.766;2023-03-21T01:33:30;101452.0;;;10.06;100.0
64453;BME280;50813;52.654;6.766;2023-03-21T01:35:07;101455.0;;;10.05;100.0
64453;BME280;50813;52.654;6.766;2023-03-21T01:38:20;101457.0;;;9.99;100.0
64453;BME280;50813;52.654;6.766;2023-03-21T01:39:56;101452.0;;;9.97;100.0
64453;BME280;50813;52.654;6.766;2023-03-21T01:41:34;101445.0;;;10.06;100.0
64453;BME280;50813;52.654;6.766;2023-03-21T01:45:00;101447.0;;;10.06;100.0
64453;BME280;50813;52.654;6.766;2023-03-21T01:46:39;101445.0;;;10.14;100.0
64453;BME280;50813;52.654;6.766;2023-03-21T01:48:17;101441.0;;;10.08;100.0
64453;BME280;50813;52.654;6.766;2023-03-21T01:49:55;101442.0;;;10.07;100.0
64453;BME280;50813;52.654;6.766;2023-03-21T01:53:18;101441.0;;;10.22;100.0
64453;BME280;50813;52.654;6.766;2023-03-21T01:54:56;101439.0;;;10.14;100.0
64453;BME280;50813;52.654;6.766;2023-03-21T01:56:36;101437.0;;;10.11;100.0
64453;BME280;50813;52.654;6.766;2023-03-21T01:58:15;101433.0;;;10.11;100.0
64453;BME280;50813;52.654;6.766;2023-03-21T02:01:30;101432.0;;;10.25;100.0
64453;BME280;50813;52.654;6.766;2023-03-21T02:03:08;101431.0;;;10.14;100.0
64453;BME280;50813;52.654;6.766;2023-03-21T02:04:45;101432.0;;;10.13;100.0
64453;BME280;50813;52.654;6.766;2023-03-21T02:06:28;101425.0;;;10.23;100.0
64453;BME280;50813;52.654;6.766;2023-03-21T02:09:45;101424.0;;;10.17;100.0
64453;BME280;50813;52.654;6.766;2023-03-21T02:11:22;101422.0;;;10.19;100.0
64453;BME280;50813;52.654;6.766;2023-03-21T02:13:00;101419.0;;;10.14;100.0
64453;BME280;50813;52.654;6.766;2023-03-21T02:16:19;101417.0;;;10.03;100.0
64453;BME280;50813;52.654;6.766;2023-03-21T02:18:06;101417.0;;;10.06;100.0
64453;BME280;50813;52.654;6.766;2023-03-21T02:21:16;101414.0;;;10.06;100.0
64453;BME280;50813;52.654;6.766;2023-03-21T02:28:08;101405.0;;;10.14;100.0
64453;BME280;50813;52.654;6.766;2023-03-21T02:31:05;101405.0;;;10.05;100.0
64453;BME280;50813;52.654;6.766;2023-03-21T02:33:58;101401.0;;;9.93;100.0
64453;BME280;50813;52.654;6.766;2023-03-21T02:37:09;101396.0;;;9.97;100.0
64453;BME280;50813;52.654;6.766;2023-03-21T02:38:53;101393.0;;;9.91;100.0
64453;BME280;50813;52.654;6.766;2023-03-21T02:40:34;101394.0;;;10.01;100.0
64453;BME280;50813;52.654;6.766;2023-03-21T02:42:18;101393.0;;;9.97;100.0
64453;BME280;50813;52.654;6.766;2023-03-21T02:45:44;101390.0;;;9.98;100.0
64453;BME280;50813;52.654;6.766;2023-03-21T02:47:28;101388.0;;;9.97;100.0
64453;BME280;50813;52.654;6.766;2023-03-21T02:49:10;101391.0;;;9.98;100.0
64453;BME280;50813;52.654;6.766;2023-03-21T02:50:53;101386.0;;;9.92;100.0
64453;BME280;50813;52.654;6.766;2023-03-21T02:52:33;101384.0;;;9.94;100.0
64453;BME280;50813;52.654;6.766;2023-03-21T02:55:52;101384.0;;;9.96;100.0
64453;BME280;50813;52.654;6.766;2023-03-21T02:57:29;101383.0;;;9.91;100.0
64453;BME280;50813;52.654;6.766;2023-03-21T02:59:06;101383.0;;;9.98;100.0
64453;BME280;50813;52.654;6.766;2023-03-21T03:00:45;101383.0;;;9.94;100.0
64453;BME280;50813;52.654;6.766;2023-03-21T03:04:03;101377.0;;;9.81;100.0
64453;BME280;50813;52.654;6.766;2023-03-21T03:05:42;101383.0;;;9.81;100.0
64453;BME280;50813;52.654;6.766;2023-03-21T03:07:32;101380.0;;;9.8;100.0
64453;BME280;50813;52.654;6.766;2023-03-21T03:09:23;101380.0;;;9.76;100.0
64453;BME280;50813;52.654;6.766;2023-03-21T03:13:06;101380.0;;;9.82;100.0
64453;BME280;50813;52.654;6.766;2023-03-21T03:14:52;101380.0;;;9.8;100.0
64453;BME280;50813;52.654;6.766;2023-03-21T03:16:39;101378.0;;;9.84;100.0
64453;BME280;50813;52.654;6.766;2023-03-21T03:18:27;101378.0;;;9.81;100.0
64453;BME280;50813;52.654;6.766;2023-03-21T03:20:20;101380.0;;;9.89;100.0
64453;BME280;50813;52.654;6.766;2023-03-21T03:22:05;101377.0;;;9.83;100.0
64453;BME280;50813;52.654;6.766;2023-03-21T03:23:47;101375.0;;;9.8;100.0
64453;BME280;50813;52.654;6.766;2023-03-21T03:27:10;101380.0;;;9.89;100.0
64453;BME280;50813;52.654;6.766;2023-03-21T03:28:51;101381.0;;;9.91;100.0
64453;BME280;50813;52.654;6.766;2023-03-21T03:30:29;101378.0;;;9.85;100.0
64453;BME280;50813;52.654;6.766;2023-03-21T03:33:48;101375.0;;;9.88;100.0
64453;BME280;50813;52.654;6.766;2023-03-21T03:35:28;101374.0;;;9.83;100.0
64453;BME280;50813;52.654;6.766;2023-03-21T03:37:07;101368.0;;;9.81;100.0
64453;BME280;50813;52.654;6.766;2023-03-21T03:38:47;101370.0;;;9.77;100.0
64453;BME280;50813;52.654;6.766;2023-03-21T03:42:09;101365.0;;;9.8;100.0
64453;BME280;50813;52.654;6.766;2023-03-21T03:43:52;101367.0;;;9.78;100.0
64453;BME280;50813;52.654;6.766;2023-03-21T03:45:34;101366.0;;;9.83;100.0
64453;BME280;50813;52.654;6.766;2023-03-21T03:47:20;101365.0;;;9.75;100.0
64453;BME280;50813;52.654;6.766;2023-03-21T03:49:01;101373.0;;;9.71;100.0
64453;BME280;50813;52.654;6.766;2023-03-21T03:52:25;101367.0;;;9.71;100.0
64453;BME280;50813;52.654;6.766;2023-03-21T03:54:09;101369.0;;;9.76;100.0
64453;BME280;50813;52.654;6.766;2023-03-21T03:55:48;101367.0;;;9.73;100.0
64453;BME280;50813;52.654;6.766;2023-03-21T03:57:26;101365.0;;;9.56;100.0
64453;BME280;50813;52.654;6.766;2023-03-21T04:00:39;101368.0;;;9.57;100.0
64453;BME280;50813;52.654;6.766;2023-03-21T04:02:16;101365.0;;;9.64;100.0
64453;BME280;50813;52.654;6.766;2023-03-21T04:03:52;101364.0;;;9.68;100.0
64453;BME280;50813;52.654;6.766;2023-03-21T04:07:04;101367.0;;;9.61;100.0
64453;BME280;50813;52.654;6.766;2023-03-21T04:08:40;101363.0;;;9.65;100.0
64453;BME280;50813;52.654;6.766;2023-03-21T04:10:18;101364.0;;;9.56;100.0
64453;BME280;50813;52.654;6.766;2023-03-21T04:11:56;101361.0;;;9.56;100.0
64453;BME280;50813;52.654;6.766;2023-03-21T04:15:09;101360.0;;;9.58;100.0
64453;BME280;50813;52.654;6.766;2023-03-21T04:16:46;101357.0;;;9.56;100.0
64453;BME280;50813;52.654;6.766;2023-03-21T04:18:23;101355.0;;;9.63;100.0
64453;BME280;50813;52.654;6.766;2023-03-21T04:21:35;101358.0;;;9.63;100.0
64453;BME280;50813;52.654;6.766;2023-03-21T04:23:11;101355.0;;;9.66;100.0
64453;BME280;50813;52.654;6.766;2023-03-21T04:24:47;101351.0;;;9.64;100.0
64453;BME280;50813;52.654;6.766;2023-03-21T04:28:00;101348.0;;;9.67;100.0
64453;BME280;50813;52.654;6.766;2023-03-21T04:29:36;101347.0;;;9.68;100.0
64453;BME280;50813;52.654;6.766;2023-03-21T04:31:12;101350.0;;;9.66;100.0
64453;BME280;50813;52.654;6.766;2023-03-21T04:32:48;101349.0;;;9.67;100.0
64453;BME280;50813;52.654;6.766;2023-03-21T04:36:00;101355.0;;;9.66;100.0
64453;BME280;50813;52.654;6.766;2023-03-21T04:37:37;101348.0;;;9.72;100.0
64453;BME280;50813;52.654;6.766;2023-03-21T04:39:13;101347.0;;;9.66;100.0
64453;BME280;50813;52.654;6.766;2023-03-21T04:42:26;101340.0;;;9.73;100.0
64453;BME280;50813;52.654;6.766;2023-03-21T04:44:02;101344.0;;;9.8;100.0
64453;BME280;50813;52.654;6.766;2023-03-21T04:45:38;101341.0;;;9.68;100.0
64453;BME280;50813;52.654;6.766;2023-03-21T04:48:53;101339.0;;;9.65;100.0
64453;BME280;50813;52.654;6.766;2023-03-21T04:50:29;101334.0;;;9.64;100.0
64453;BME280;50813;52.654;6.766;2023-03-21T04:52:05;101333.0;;;9.59;100.0
64453;BME280;50813;52.654;6.766;2023-03-21T04:53:41;101331.0;;;9.59;100.0
64453;BME280;50813;52.654;6.766;2023-03-21T04:56:53;101330.0;;;9.61;100.0
64453;BME280;50813;52.654;6.766;2023-03-21T04:58:29;101330.0;;;9.6;100.0
64453;BME280;50813;52.654;6.766;2023-03-21T05:00:07;101323.0;;;9.61;100.0
64453;BME280;50813;52.654;6.766;2023-03-21T05:03:22;101327.0;;;9.63;100.0
64453;BME280;50813;52.654;6.766;2023-03-21T05:04:58;101325.0;;;9.64;100.0
64453;BME280;50813;52.654;6.766;2023-03-21T05:06:34;101331.0;;;9.61;100.0
64453;BME280;50813;52.654;6.766;2023-03-21T05:09:48;101324.0;;;9.57;100.0
64453;BME280;50813;52.654;6.766;2023-03-21T05:11:25;101323.0;;;9.59;100.0
64453;BME280;50813;52.654;6.766;2023-03-21T05:13:02;101321.0;;;9.56;100.0
64453;BME280;50813;52.654;6.766;2023-03-21T05:14:38;101319.0;;;9.53;100.0
64453;BME280;50813;52.654;6.766;2023-03-21T05:17:50;101321.0;;;9.58;100.0
64453;BME280;50813;52.654;6.766;2023-03-21T05:19:29;101318.0;;;9.53;100.0
64453;BME280;50813;52.654;6.766;2023-03-21T05:21:05;101316.0;;;9.58;100.0
64453;BME280;50813;52.654;6.766;2023-03-21T05:24:20;101317.0;;;9.64;100.0
64453;BME280;50813;52.654;6.766;2023-03-21T05:25:57;101317.0;;;9.64;100.0
64453;BME280;50813;52.654;6.766;2023-03-21T05:27:34;101319.0;;;9.61;100.0
64453;BME280;50813;52.654;6.766;2023-03-21T05:30:46;101317.0;;;9.58;100.0
64453;BME280;50813;52.654;6.766;2023-03-21T05:32:22;101319.0;;;9.58;100.0
64453;BME280;50813;52.654;6.766;2023-03-21T05:33:59;101313.0;;;9.51;100.0
64453;BME280;50813;52.654;6.766;2023-03-21T05:35:36;101319.0;;;9.53;100.0
64453;BME280;50813;52.654;6.766;2023-03-21T05:38:49;101321.0;;;9.57;100.0
64453;BME280;50813;52.654;6.766;2023-03-21T05:40:25;101318.0;;;9.53;100.0
64453;BME280;50813;52.654;6.766;2023-03-21T05:42:01;101310.0;;;9.56;100.0
64453;BME280;50813;52.654;6.766;2023-03-21T05:45:14;101318.0;;;9.6;100.0
64453;BME280;50813;52.654;6.766;2023-03-21T05:46:51;101311.0;;;9.53;100.0
64453;BME280;50813;52.654;6.766;2023-03-21T05:48:27;101317.0;;;9.55;100.0
64453;BME280;50813;52.654;6.766;2023-03-21T05:51:40;101317.0;;;9.53;100.0
64453;BME280;50813;52.654;6.766;2023-03-21T05:53:16;101317.0;;;9.51;100.0
64453;BME280;50813;52.654;6.766;2023-03-21T05:54:52;101318.0;;;9.56;100.0
64453;BME280;50813;52.654;6.766;2023-03-21T05:56:28;101317.0;;;9.57;100.0
64453;BME280;50813;52.654;6.766;2023-03-21T05:59:40;101315.0;;;9.56;100.0
64453;BME280;50813;52.654;6.766;2023-03-21T06:01:16;101321.0;;;9.58;100.0
64453;BME280;50813;52.654;6.766;2023-03-21T06:02:52;101320.0;;;9.5;100.0
64453;BME280;50813;52.654;6.766;2023-03-21T06:06:05;101315.0;;;9.53;100.0
64453;BME280;50813;52.654;6.766;2023-03-21T06:07:40;101314.0;;;9.55;100.0
64453;BME280;50813;52.654;6.766;2023-03-21T06:09:17;101317.0;;;9.57;100.0
64453;BME280;50813;52.654;6.766;2023-03-21T06:12:29;101316.0;;;9.57;100.0
64453;BME280;50813;52.654;6.766;2023-03-21T06:14:05;101317.0;;;9.63;100.0
64453;BME280;50813;52.654;6.766;2023-03-21T06:15:41;101313.0;;;9.64;100.0
64453;BME280;50813;52.654;6.766;2023-03-21T06:18:55;101320.0;;;9.69;100.0
64453;BME280;50813;52.654;6.766;2023-03-21T06:20:31;101313.0;;;9.72;100.0
64453;BME280;50813;52.654;6.766;2023-03-21T06:22:07;101315.0;;;9.69;100.0
64453;BME280;50813;52.654;6.766;2023-03-21T06:23:43;101314.0;;;9.59;100.0
64453;BME280;50813;52.654;6.766;2023-03-21T06:26:55;101316.0;;;9.67;100.0
64453;BME280;50813;52.654;6.766;2023-03-21T06:28:32;101314.0;;;9.57;100.0
64453;BME280;50813;52.654;6.766;2023-03-21T06:30:10;101316.0;;;9.59;100.0
64453;BME280;50813;52.654;6.766;2023-03-21T06:33:23;101316.0;;;9.56;100.0
64453;BME280;50813;52.654;6.766;2023-03-21T06:34:59;101319.0;;;9.58;100.0
64453;BME280;50813;52.654;6.766;2023-03-21T06:36:35;101322.0;;;9.53;100.0
64453;BME280;50813;52.654;6.766;2023-03-21T06:39:48;101322.0;;;9.5;100.0
64453;BME280;50813;52.654;6.766;2023-03-21T06:41:24;101316.0;;;9.52;100.0
64453;BME280;50813;52.654;6.766;2023-03-21T06:43:00;101321.0;;;9.56;100.0
64453;BME280;50813;52.654;6.766;2023-03-21T06:44:36;101323.0;;;9.56;100.0
64453;BME280;50813;52.654;6.766;2023-03-21T06:47:48;101321.0;;;9.66;100.0
64453;BME280;50813;52.654;6.766;2023-03-21T06:49:24;101320.0;;;9.68;100.0
64453;BME280;50813;52.654;6.766;2023-03-21T06:51:00;101326.0;;;9.58;100.0
64453;BME280;50813;52.654;6.766;2023-03-21T06:54:13;101321.0;;;9.59;100.0
64453;BME280;50813;52.654;6.766;2023-03-21T06:55:50;101325.0;;;9.6;100.0
64453;BME280;50813;52.654;6.766;2023-03-21T06:57:27;101325.0;;;9.56;100.0
64453;BME280;50813;52.654;6.766;2023-03-21T07:00:39;101323.0;;;9.52;100.0
64453;BME280;50813;52.654;6.766;2023-03-21T07:02:15;101326.0;;;9.48;100.0
64453;BME280;50813;52.654;6.766;2023-03-21T07:03:51;101327.0;;;9.53;100.0
64453;BME280;50813;52.654;6.766;2023-03-21T07:07:03;101328.0;;;9.56;100.0
64453;BME280;50813;52.654;6.766;2023-03-21T07:08:39;101334.0;;;9.39;100.0
64453;BME280;50813;52.654;6.766;2023-03-21T07:10:17;101328.0;;;9.39;100.0
64453;BME280;50813;52.654;6.766;2023-03-21T07:11:52;101330.0;;;9.38;100.0
64453;BME280;50813;52.654;6.766;2023-03-21T07:15:07;101330.0;;;9.35;100.0
64453;BME280;50813;52.654;6.766;2023-03-21T07:16:44;101333.0;;;9.33;100.0
64453;BME280;50813;52.654;6.766;2023-03-21T07:18:21;101333.0;;;9.33;100.0
64453;BME280;50813;52.654;6.766;2023-03-21T07:21:34;101338.0;;;9.3;100.0
64453;BME280;50813;52.654;6.766;2023-03-21T07:23:10;101333.0;;;9.31;100.0
64453;BME280;50813;52.654;6.766;2023-03-21T07:24:47;101334.0;;;9.24;100.0
64453;BME280;50813;52.654;6.766;2023-03-21T07:27:59;101340.0;;;9.23;100.0
64453;BME280;50813;52.654;6.766;2023-03-21T07:29:35;101338.0;;;9.26;100.0
64453;BME280;50813;52.654;6.766;2023-03-21T07:31:13;101341.0;;;9.24;100.0
64453;BME280;50813;52.654;6.766;2023-03-21T07:32:50;101335.0;;;9.21;100.0
64453;BME280;50813;52.654;6.766;2023-03-21T07:36:09;101337.0;;;9.24;100.0
64453;BME280;50813;52.654;6.766;2023-03-21T07:37:47;101333.0;;;9.22;100.0
64453;BME280;50813;52.654;6.766;2023-03-21T07:39:23;101330.0;;;9.23;100.0
64453;BME280;50813;52.654;6.766;2023-03-21T07:42:35;101330.0;;;9.26;100.0
64453;BME280;50813;52.654;6.766;2023-03-21T07:44:11;101330.0;;;9.3;100.0
64453;BME280;50813;52.654;6.766;2023-03-21T07:45:47;101331.0;;;9.31;100.0
64453;BME280;50813;52.654;6.766;2023-03-21T07:47:24;101331.0;;;9.36;100.0
64453;BME280;50813;52.654;6.766;2023-03-21T07:50:36;101331.0;;;9.31;100.0
64453;BME280;50813;52.654;6.766;2023-03-21T07:52:12;101327.0;;;9.31;100.0
64453;BME280;50813;52.654;6.766;2023-03-21T07:53:48;101330.0;;;9.31;100.0
64453;BME280;50813;52.654;6.766;2023-03-21T07:57:00;101332.0;;;9.35;100.0
64453;BME280;50813;52.654;6.766;2023-03-21T07:58:37;101330.0;;;9.38;100.0
64453;BME280;50813;52.654;6.766;2023-03-21T08:00:14;101326.0;;;9.34;100.0
64453;BME280;50813;52.654;6.766;2023-03-21T08:03:26;101331.0;;;9.35;100.0
64453;BME280;50813;52.654;6.766;2023-03-21T08:05:02;101327.0;;;9.41;100.0
64453;BME280;50813;52.654;6.766;2023-03-21T08:06:40;101330.0;;;9.39;100.0
64453;BME280;50813;52.654;6.766;2023-03-21T08:08:16;101332.0;;;9.41;100.0
64453;BME280;50813;52.654;6.766;2023-03-21T08:11:29;101332.0;;;9.44;100.0
64453;BME280;50813;52.654;6.766;2023-03-21T08:13:05;101330.0;;;9.42;100.0
64453;BME280;50813;52.654;6.766;2023-03-21T08:14:41;101323.0;;;9.48;100.0
64453;BME280;50813;52.654;6.766;2023-03-21T08:17:53;101325.0;;;9.43;100.0
64453;BME280;50813;52.654;6.766;2023-03-21T08:19:29;101328.0;;;9.48;100.0
64453;BME280;50813;52.654;6.766;2023-03-21T08:21:06;101328.0;;;9.56;100.0
64453;BME280;50813;52.654;6.766;2023-03-21T08:24:19;101324.0;;;9.56;100.0
64453;BME280;50813;52.654;6.766;2023-03-21T08:25:55;101321.0;;;9.52;100.0
64453;BME280;50813;52.654;6.766;2023-03-21T08:27:33;101319.0;;;9.67;100.0
64453;BME280;50813;52.654;6.766;2023-03-21T08:29:09;101320.0;;;9.64;100.0
64453;BME280;50813;52.654;6.766;2023-03-21T08:32:22;101318.0;;;9.64;100.0
64453;BME280;50813;52.654;6.766;2023-03-21T08:33:58;101313.0;;;9.75;100.0
64453;BME280;50813;52.654;6.766;2023-03-21T08:35:34;101309.0;;;9.78;100.0
64453;BME280;50813;52.654;6.766;2023-03-21T08:38:46;101314.0;;;9.76;100.0
64453;BME280;50813;52.654;6.766;2023-03-21T08:40:23;101316.0;;;9.73;100.0
64453;BME280;50813;52.654;6.766;2023-03-21T08:41:58;101316.0;;;9.74;100.0
64453;BME280;50813;52.654;6.766;2023-03-21T08:45:12;101318.0;;;9.73;100.0
64453;BME280;50813;52.654;6.766;2023-03-21T08:46:49;101315.0;;;9.72;100.0
64453;BME280;50813;52.654;6.766;2023-03-21T08:48:25;101313.0;;;9.74;100.0
64453;BME280;50813;52.654;6.766;2023-03-21T08:51:38;101313.0;;;9.73;100.0
64453;BME280;50813;52.654;6.766;2023-03-21T08:53:15;101318.0;;;9.88;100.0
64453;BME280;50813;52.654;6.766;2023-03-21T08:54:51;101315.0;;;9.82;100.0
64453;BME280;50813;52.654;6.766;2023-03-21T08:56:27;101311.0;;;9.82;100.0
64453;BME280;50813;52.654;6.766;2023-03-21T08:59:40;101314.0;;;9.83;100.0
64453;BME280;50813;52.654;6.766;2023-03-21T09:01:16;101311.0;;;9.86;100.0
64453;BME280;50813;52.654;6.766;2023-03-21T09:02:53;101309.0;;;9.9;100.0
64453;BME280;50813;52.654;6.766;2023-03-21T09:06:05;101311.0;;;9.94;100.0
64453;BME280;50813;52.654;6.766;2023-03-21T09:07:41;101311.0;;;9.98;100.0
64453;BME280;50813;52.654;6.766;2023-03-21T09:09:18;101314.0;;;10.05;100.0
64453;BME280;50813;52.654;6.766;2023-03-21T09:12:31;101316.0;;;9.97;100.0
64453;BME280;50813;52.654;6.766;2023-03-21T09:14:08;101309.0;;;10.02;100.0
64453;BME280;50813;52.654;6.766;2023-03-21T09:15:44;101311.0;;;10.03;100.0
64453;BME280;50813;52.654;6.766;2023-03-21T09:17:21;101313.0;;;10.1;100.0
64453;BME280;50813;52.654;6.766;2023-03-21T09:20:34;101303.0;;;10.01;100.0
64453;BME280;50813;52.654;6.766;2023-03-21T09:22:10;101307.0;;;10.03;100.0
64453;BME280;50813;52.654;6.766;2023-03-21T09:23:47;101303.0;;;10.06;100.0
64453;BME280;50813;52.654;6.766;2023-03-21T09:26:59;101301.0;;;10.14;100.0
64453;BME280;50813;52.654;6.766;2023-03-21T09:28:36;101302.0;;;10.16;100.0
64453;BME280;50813;52.654;6.766;2023-03-21T09:30:14;101301.0;;;10.14;100.0
64453;BME280;50813;52.654;6.766;2023-03-21T09:33:27;101301.0;;;10.11;100.0
64453;BME280;50813;52.654;6.766;2023-03-21T09:35:04;101298.0;;;10.11;100.0
64453;BME280;50813;52.654;6.766;2023-03-21T09:36:41;101293.0;;;10.1;100.0
64453;BME280;50813;52.654;6.766;2023-03-21T09:38:17;101296.0;;;10.05;100.0
64453;BME280;50813;52.654;6.766;2023-03-21T09:41:40;101294.0;;;10.13;100.0
64453;BME280;50813;52.654;6.766;2023-03-21T09:43:34;101300.0;;;10.14;100.0
64453;BME280;50813;52.654;6.766;2023-03-21T09:45:20;101292.0;;;10.24;100.0
64453;BME280;50813;52.654;6.766;2023-03-21T09:47:03;101294.0;;;10.26;100.0
64453;BME280;50813;52.654;6.766;2023-03-21T09:48:49;101294.0;;;10.23;100.0
64453;BME280;50813;52.654;6.766;2023-03-21T09:52:17;101291.0;;;10.22;100.0
64453;BME280;50813;52.654;6.766;2023-03-21T09:53:59;101295.0;;;10.18;100.0
64453;BME280;50813;52.654;6.766;2023-03-21T09:55:39;101296.0;;;10.19;100.0
64453;BME280;50813;52.654;6.766;2023-03-21T09:57:24;101290.0;;;10.18;100.0
64453;BME280;50813;52.654;6.766;2023-03-21T10:00:48;101286.0;;;10.09;100.0
64453;BME280;50813;52.654;6.766;2023-03-21T10:02:35;101292.0;;;10.16;100.0
64453;BME280;50813;52.654;6.766;2023-03-21T10:04:14;101289.0;;;10.23;100.0
64453;BME280;50813;52.654;6.766;2023-03-21T10:05:52;101285.0;;;10.27;100.0
64453;BME280;50813;52.654;6.766;2023-03-21T10:07:32;101287.0;;;10.25;100.0
64453;BME280;50813;52.654;6.766;2023-03-21T10:10:57;101283.0;;;10.26;100.0
64453;BME280;50813;52.654;6.766;2023-03-21T10:12:37;101289.0;;;10.21;100.0
64453;BME280;50813;52.654;6.766;2023-03-21T10:14:17;101281.0;;;10.11;100.0
64453;BME280;50813;52.654;6.766;2023-03-21T10:15:56;101278.0;;;10.17;100.0
64453;BME280;50813;52.654;6.766;2023-03-21T10:19:17;101276.0;;;10.23;100.0
64453;BME280;50813;52.654;6.766;2023-03-21T10:20:53;101275.0;;;10.23;100.0
64453;BME280;50813;52.654;6.766;2023-03-21T10:22:30;101275.0;;;10.23;100.0
64453;BME280;50813;52.654;6.766;2023-03-21T10:25:50;101270.0;;;10.28;100.0
64453;BME280;50813;52.654;6.766;2023-03-21T10:27:29;101265.0;;;10.32;100.0
64453;BME280;50813;52.654;6.766;2023-03-21T10:29:09;101263.0;;;10.38;100.0
64453;BME280;50813;52.654;6.766;2023-03-21T10:30:49;101265.0;;;10.36;100.0
64453;BME280;50813;52.654;6.766;2023-03-21T10:34:08;101259.0;;;10.35;100.0
64453;BME280;50813;52.654;6.766;2023-03-21T10:35:55;101260.0;;;10.39;100.0
64453;BME280;50813;52.654;6.766;2023-03-21T10:37:33;101261.0;;;10.48;100.0
64453;BME280;50813;52.654;6.766;2023-03-21T10:39:19;101255.0;;;10.39;100.0
64453;BME280;50813;52.654;6.766;2023-03-21T10:40:57;101255.0;;;10.37;100.0
64453;BME280;50813;52.654;6.766;2023-03-21T10:44:12;101247.0;;;10.42;100.0
64453;BME280;50813;52.654;6.766;2023-03-21T10:45:49;101246.0;;;10.4;100.0
64453;BME280;50813;52.654;6.766;2023-03-21T10:47:30;101242.0;;;10.37;100.0
64453;BME280;50813;52.654;6.766;2023-03-21T10:50:46;101238.0;;;10.57;100.0
64453;BME280;50813;52.654;6.766;2023-03-21T10:52:26;101237.0;;;10.51;100.0
64453;BME280;50813;52.654;6.766;2023-03-21T10:54:06;101228.0;;;10.41;100.0
64453;BME280;50813;52.654;6.766;2023-03-21T10:55:46;101228.0;;;10.45;100.0
64453;BME280;50813;52.654;6.766;2023-03-21T10:59:04;101226.0;;;10.43;100.0
64453;BME280;50813;52.654;6.766;2023-03-21T11:00:42;101219.0;;;10.53;100.0
64453;BME280;50813;52.654;6.766;2023-03-21T11:02:23;101212.0;;;10.6;100.0
64453;BME280;50813;52.654;6.766;2023-03-21T11:04:06;101206.0;;;10.62;100.0
64453;BME280;50813;52.654;6.766;2023-03-21T11:07:20;101207.0;;;10.57;100.0
64453;BME280;50813;52.654;6.766;2023-03-21T11:09:00;101209.0;;;10.65;100.0
64453;BME280;50813;52.654;6.766;2023-03-21T11:10:51;101205.0;;;10.61;100.0
64453;BME280;50813;52.654;6.766;2023-03-21T11:12:32;101199.0;;;10.66;100.0
64453;BME280;50813;52.654;6.766;2023-03-21T11:16:09;101206.0;;;10.75;100.0
64453;BME280;50813;52.654;6.766;2023-03-21T11:17:46;101197.0;;;10.73;100.0